Time;durP1;ratioP1;P1;durP2;ratioP2;P2;SDS_P1;SDS_P2;PMS_P1;PMS_P2;Temp;Humidity;BMP_temperature;BMP_pressure;BME280_temperature;BME280_humidity;BME280_pressure;Samples;Min_cycle;Max_cycle;Signal;HPM_P1;HPM_P2
2023/07/08 00:01:13;;;;;;;;;;;;;;;22.06;38.89;98345.47;7372762;19;19926;-71
2023/07/08 00:03:40;;;;;;;;;;;;;;;22.05;39.42;98341.97;7378109;19;19919;-71
2023/07/08 00:06:09;;;;;;;;;;;;;;;22.02;39.93;98347.81;7372664;19;20044;-72
2023/07/08 00:08:36;;;;;;;;;;;;;;;21.97;38.97;98354.97;7370400;19;19932;-71
2023/07/08 00:11:07;;;;;;;;;;;;;;;21.90;38.62;98350.47;7374031;19;19996;-71
2023/07/08 00:13:34;;;;;;;;;;;;;;;21.92;39.24;98351.06;7369825;19;20277;-71
2023/07/08 00:16:01;;;;;;;;;;;;;;;21.80;40.27;98350.22;7367311;19;19929;-71
2023/07/08 00:18:28;;;;;;;;;;;;;;;21.81;39.94;98341.09;7365793;19;19911;-71
2023/07/08 00:20:55;;;;;;;;;;;;;;;21.77;38.49;98333.69;7375298;19;20275;-71
2023/07/08 00:23:21;;;;;;;;;;;;;;;21.86;39.91;98326.94;7369095;19;19918;-71
2023/07/08 00:25:48;;;;;;;;;;;;;;;21.91;39.70;98319.81;7373910;19;19927;-71
2023/07/08 00:28:17;;;;;;;;;;;;;;;21.82;39.70;98325.75;7367877;19;20348;-70
2023/07/08 00:30:44;;;;;;;;;;;;;;;21.86;42.50;98326.94;7372099;19;19926;-71
2023/07/08 00:33:10;;;;;;;;;;;;;;;21.83;41.96;98325.53;7369246;19;19943;-71
2023/07/08 00:35:38;;;;;;;;;;;;;;;21.76;39.91;98321.28;7369120;19;20396;-71
2023/07/08 00:38:15;;;;;;;;;;;;;;;21.59;40.12;98321.09;7372998;19;19931;-71
2023/07/08 00:40:49;;;;;;;;;;;;;;;21.67;39.54;98321.63;7373031;19;19915;-71
2023/07/08 00:43:16;;;;;;;;;;;;;;;21.57;38.61;98318.63;7371507;19;19937;-71
2023/07/08 00:45:49;;;;;;;;;;;;;;;21.72;38.39;98328.16;7374604;19;19919;-71
2023/07/08 00:48:33;;;;;;;;;;;;;;;21.75;40.45;98333.94;7364058;19;19911;-71
2023/07/08 00:51:00;;;;;;;;;;;;;;;21.60;40.93;98338.91;7368613;19;19923;-71
2023/07/08 00:53:29;;;;;;;;;;;;;;;21.70;41.56;98341.88;7371851;19;19922;-71
2023/07/08 00:55:57;;;;;;;;;;;;;;;21.57;41.69;98339.38;7375133;19;19915;-72
2023/07/08 00:58:25;;;;;;;;;;;;;;;21.64;40.60;98348.16;7368074;19;19918;-71
2023/07/08 01:00:52;;;;;;;;;;;;;;;21.56;42.65;98343.09;7373094;19;19918;-71
2023/07/08 01:03:18;;;;;;;;;;;;;;;21.52;41.47;98352.69;7371961;19;20261;-71
2023/07/08 01:05:45;;;;;;;;;;;;;;;21.45;42.04;98348.19;7374214;19;19915;-71
2023/07/08 01:08:12;;;;;;;;;;;;;;;21.35;41.41;98350.56;7371814;19;19926;-71
2023/07/08 01:10:39;;;;;;;;;;;;;;;21.33;40.35;98349.97;7369703;19;19915;-71
2023/07/08 01:13:07;;;;;;;;;;;;;;;21.19;40.75;98348.47;7369150;19;19930;-71
2023/07/08 01:15:41;;;;;;;;;;;;;;;21.05;41.39;98340.56;7365329;19;20220;-71
2023/07/08 01:18:09;;;;;;;;;;;;;;;21.03;41.62;98344.50;7371979;19;19919;-72
2023/07/08 01:20:35;;;;;;;;;;;;;;;21.04;41.21;98338.09;7366724;19;19910;-71
2023/07/08 01:23:02;;;;;;;;;;;;;;;21.21;40.09;98336.44;7368455;19;19918;-72
2023/07/08 01:25:29;;;;;;;;;;;;;;;21.23;40.62;98333.53;7363709;19;20321;-71
2023/07/08 01:27:57;;;;;;;;;;;;;;;21.18;40.76;98338.78;7372782;19;19992;-72
2023/07/08 01:30:23;;;;;;;;;;;;;;;21.24;40.27;98333.28;7370241;19;19932;-73
2023/07/08 01:32:51;;;;;;;;;;;;;;;21.18;41.14;98346.84;7374824;19;19921;-72
2023/07/08 01:35:18;;;;;;;;;;;;;;;21.20;40.98;98350.13;7372479;19;20663;-72
2023/07/08 01:37:48;;;;;;;;;;;;;;;21.18;40.65;98341.47;7369037;19;19922;-71
2023/07/08 01:40:15;;;;;;;;;;;;;;;21.16;40.16;98344.38;7369868;19;20002;-73
2023/07/08 01:42:41;;;;;;;;;;;;;;;21.32;39.09;98336.72;7370813;19;19935;-71
2023/07/08 01:45:12;;;;;;;;;;;;;;;21.19;40.13;98337.72;7371586;19;20259;-72
2023/07/08 01:47:39;;;;;;;;;;;;;;;21.37;39.43;98335.00;7373695;19;19926;-71
2023/07/08 01:50:07;;;;;;;;;;;;;;;21.27;38.59;98334.72;7378600;19;20384;-72
2023/07/08 01:52:33;;;;;;;;;;;;;;;21.38;39.30;98325.94;7375791;19;20612;-71
2023/07/08 01:55:00;;;;;;;;;;;;;;;21.39;39.57;98319.50;7375596;19;20257;-72
2023/07/08 01:57:26;;;;;;;;;;;;;;;21.29;39.03;98329.13;7373105;19;19986;-71
2023/07/08 01:59:53;;;;;;;;;;;;;;;21.28;38.82;98322.91;7375773;19;19922;-71
2023/07/08 02:02:22;;;;;;;;;;;;;;;21.30;39.04;98331.59;7377762;19;19918;-71
2023/07/08 02:04:48;;;;;;;;;;;;;;;21.35;40.00;98326.31;7379741;19;20315;-72
2023/07/08 02:07:15;;;;;;;;;;;;;;;21.29;38.76;98329.13;7379081;19;19914;-72
2023/07/08 02:09:42;;;;;;;;;;;;;;;21.38;38.27;98335.84;7373539;19;19923;-71
2023/07/08 02:12:08;;;;;;;;;;;;;;;21.30;38.41;98334.28;7374136;19;19927;-72
2023/07/08 02:14:35;;;;;;;;;;;;;;;21.25;38.67;98331.44;7368448;19;19933;-71
2023/07/08 02:17:05;;;;;;;;;;;;;;;21.27;39.32;98332.03;7376706;19;19923;-72
2023/07/08 02:19:32;;;;;;;;;;;;;;;21.29;39.59;98331.81;7370918;19;19923;-71
2023/07/08 02:22:00;;;;;;;;;;;;;;;21.23;39.86;98331.66;7363876;19;19925;-72
2023/07/08 02:24:27;;;;;;;;;;;;;;;21.15;41.72;98334.66;7364862;19;19922;-72
2023/07/08 02:26:53;;;;;;;;;;;;;;;21.07;42.54;98332.28;7373863;19;19919;-71
2023/07/08 02:29:20;;;;;;;;;;;;;;;20.99;41.62;98341.47;7374028;19;20233;-71
2023/07/08 02:31:47;;;;;;;;;;;;;;;20.90;40.64;98337.41;7372060;19;19926;-71
2023/07/08 02:34:14;;;;;;;;;;;;;;;20.88;42.49;98341.38;7375001;19;19922;-71
2023/07/08 02:36:41;;;;;;;;;;;;;;;20.81;42.51;98338.75;7373094;19;19930;-71
2023/07/08 02:39:07;;;;;;;;;;;;;;;20.74;42.69;98346.88;7374463;19;20406;-71
2023/07/08 02:41:34;;;;;;;;;;;;;;;20.65;43.57;98347.41;7373084;19;19931;-71
2023/07/08 02:44:01;;;;;;;;;;;;;;;20.61;43.10;98342.44;7377880;19;19919;-71
2023/07/08 02:46:28;;;;;;;;;;;;;;;20.56;43.39;98345.00;7366448;19;19915;-71
2023/07/08 02:48:54;;;;;;;;;;;;;;;20.44;42.31;98352.09;7370941;19;19935;-71
2023/07/08 02:51:21;;;;;;;;;;;;;;;20.34;44.00;98355.28;7376765;19;19926;-71
2023/07/08 02:53:49;;;;;;;;;;;;;;;20.33;46.07;98361.69;7374798;19;19930;-71
2023/07/08 02:56:16;;;;;;;;;;;;;;;20.39;44.11;98358.13;7375032;19;19923;-71
2023/07/08 02:58:43;;;;;;;;;;;;;;;20.35;43.94;98358.78;7365225;19;19922;-71
2023/07/08 03:01:09;;;;;;;;;;;;;;;20.25;42.78;98358.44;7373935;19;20011;-71
2023/07/08 03:03:37;;;;;;;;;;;;;;;20.29;43.90;98365.03;7366004;19;20308;-71
2023/07/08 03:06:07;;;;;;;;;;;;;;;20.34;42.82;98365.19;7376415;19;20256;-71
2023/07/08 03:08:34;;;;;;;;;;;;;;;20.34;43.04;98376.75;7371488;19;19926;-71
2023/07/08 03:11:02;;;;;;;;;;;;;;;20.36;44.61;98376.56;7375826;19;19922;-71
2023/07/08 03:13:29;;;;;;;;;;;;;;;20.33;44.78;98380.50;7357357;19;20017;-71
2023/07/08 03:15:57;;;;;;;;;;;;;;;20.37;46.03;98395.13;7373619;19;19929;-71
2023/07/08 03:18:24;;;;;;;;;;;;;;;20.42;45.28;98390.97;7371233;19;19926;-71
2023/07/08 03:20:53;;;;;;;;;;;;;;;20.37;45.88;98402.38;7369881;19;19925;-71
2023/07/08 03:23:19;;;;;;;;;;;;;;;20.14;46.49;98393.03;7371929;19;19914;-71
2023/07/08 03:25:47;;;;;;;;;;;;;;;20.24;47.16;98395.22;7369655;19;19930;-71
2023/07/08 03:28:15;;;;;;;;;;;;;;;20.25;47.48;98396.03;7374507;19;19987;-70
2023/07/08 03:30:42;;;;;;;;;;;;;;;20.23;46.94;98387.41;7372473;19;20293;-71
2023/07/08 03:33:11;;;;;;;;;;;;;;;19.72;48.31;98389.13;7376507;19;19928;-71
2023/07/08 03:35:39;;;;;;;;;;;;;;;19.77;46.97;98394.69;7364872;19;19918;-71
2023/07/08 03:38:06;;;;;;;;;;;;;;;19.90;46.82;98399.97;7370938;19;19950;-71
2023/07/08 03:40:32;;;;;;;;;;;;;;;19.47;48.91;98395.19;7365374;19;19922;-72
2023/07/08 03:42:59;;;;;;;;;;;;;;;19.42;47.44;98380.78;7375215;19;19919;-72
2023/07/08 03:45:28;;;;;;;;;;;;;;;19.72;46.03;98381.06;7370635;19;19929;-72
2023/07/08 03:47:55;;;;;;;;;;;;;;;19.88;47.91;98398.53;7373713;19;19919;-71
2023/07/08 03:50:23;;;;;;;;;;;;;;;20.01;47.07;98392.28;7375408;19;19925;-71
2023/07/08 03:52:51;;;;;;;;;;;;;;;19.95;46.91;98394.78;7368585;19;19923;-71
2023/07/08 03:55:17;;;;;;;;;;;;;;;19.76;46.53;98378.81;7371471;19;19926;-71
2023/07/08 03:57:44;;;;;;;;;;;;;;;19.83;48.18;98390.34;7367593;19;19923;-71
2023/07/08 04:00:12;;;;;;;;;;;;;;;19.99;45.84;98376.41;7373254;19;19935;-71
2023/07/08 04:02:42;;;;;;;;;;;;;;;19.92;48.09;98394.41;7372725;19;19947;-71
2023/07/08 04:05:16;;;;;;;;;;;;;;;19.90;47.79;98389.22;7374503;19;19934;-72
2023/07/08 04:07:44;;;;;;;;;;;;;;;19.91;47.57;98387.41;7368240;19;19930;-71
2023/07/08 04:10:11;;;;;;;;;;;;;;;19.81;49.04;98395.09;7370135;19;20559;-70
2023/07/08 04:12:38;;;;;;;;;;;;;;;19.93;48.22;98404.09;7366801;19;19918;-71
2023/07/08 04:15:05;;;;;;;;;;;;;;;19.83;47.88;98403.75;7373283;19;19923;-71
2023/07/08 04:17:31;;;;;;;;;;;;;;;19.72;49.00;98403.41;7370938;19;19915;-71
2023/07/08 04:20:03;;;;;;;;;;;;;;;19.81;48.60;98395.09;7376392;19;19911;-72
2023/07/08 04:22:30;;;;;;;;;;;;;;;19.90;48.15;98393.78;7368654;19;19939;-72
2023/07/08 04:24:57;;;;;;;;;;;;;;;20.03;46.37;98393.72;7370820;19;20553;-73
2023/07/08 04:27:23;;;;;;;;;;;;;;;20.19;45.89;98395.06;7369204;19;20300;-71
2023/07/08 04:29:50;;;;;;;;;;;;;;;20.39;45.00;98397.59;7366720;19;19919;-71
2023/07/08 04:32:17;;;;;;;;;;;;;;;20.53;44.55;98392.94;7372654;19;20396;-72
2023/07/08 04:34:43;;;;;;;;;;;;;;;20.61;46.44;98392.69;7371354;19;20259;-72
2023/07/08 04:37:11;;;;;;;;;;;;;;;20.79;44.44;98391.94;7375312;19;20452;-71
2023/07/08 04:39:37;;;;;;;;;;;;;;;20.89;42.55;98386.06;7369854;19;19943;-72
2023/07/08 04:42:04;;;;;;;;;;;;;;;21.05;42.36;98385.47;7372350;19;19922;-72
2023/07/08 04:44:32;;;;;;;;;;;;;;;21.22;41.04;98385.69;7367426;19;19930;-72
2023/07/08 04:46:58;;;;;;;;;;;;;;;21.34;42.29;98380.41;7372416;19;19919;-72
2023/07/08 04:49:31;;;;;;;;;;;;;;;21.38;40.71;98377.06;7373140;19;19927;-72
2023/07/08 04:51:59;;;;;;;;;;;;;;;21.74;41.41;98378.03;7372502;19;19923;-73
2023/07/08 04:54:26;;;;;;;;;;;;;;;21.89;41.94;98380.34;7372823;19;19929;-73
2023/07/08 04:56:53;;;;;;;;;;;;;;;21.94;42.03;98382.34;7369488;19;19930;-73
2023/07/08 04:59:23;;;;;;;;;;;;;;;22.12;41.20;98379.59;7368274;19;19926;-72
2023/07/08 05:01:50;;;;;;;;;;;;;;;22.25;41.84;98370.50;7366911;19;19926;-72
2023/07/08 05:04:17;;;;;;;;;;;;;;;22.49;40.83;98372.22;7370612;19;20020;-72
2023/07/08 05:06:44;;;;;;;;;;;;;;;22.69;43.53;98385.34;7367433;19;19940;-72
2023/07/08 05:09:10;;;;;;;;;;;;;;;22.74;43.09;98382.75;7371952;19;19934;-72
2023/07/08 05:11:40;;;;;;;;;;;;;;;22.68;41.98;98386.41;7366822;19;20314;-72
2023/07/08 05:14:07;;;;;;;;;;;;;;;22.73;41.02;98383.81;7371857;19;20636;-72
2023/07/08 05:16:35;;;;;;;;;;;;;;;22.66;42.20;98385.00;7365031;19;19918;-72
2023/07/08 05:19:02;;;;;;;;;;;;;;;22.49;42.78;98374.91;7368266;19;19943;-72
2023/07/08 05:21:33;;;;;;;;;;;;;;;22.50;42.62;98390.00;7377467;19;19915;-71
2023/07/08 05:24:00;;;;;;;;;;;;;;;22.41;42.10;98382.47;7381169;19;19960;-72
2023/07/08 05:26:27;;;;;;;;;;;;;;;22.48;41.69;98380.50;7379776;19;19923;-72
2023/07/08 05:28:53;;;;;;;;;;;;;;;22.70;43.23;98394.28;7372147;19;19929;-71
2023/07/08 05:31:20;;;;;;;;;;;;;;;22.88;41.74;98399.56;7377775;19;19919;-71
2023/07/08 05:33:52;;;;;;;;;;;;;;;23.10;40.69;98397.09;7373266;19;19929;-71
2023/07/08 05:36:19;;;;;;;;;;;;;;;23.35;40.23;98393.28;7380451;19;20386;-71
2023/07/08 05:38:45;;;;;;;;;;;;;;;23.49;41.41;98396.59;7373666;19;19941;-70
2023/07/08 05:41:12;;;;;;;;;;;;;;;23.64;39.79;98397.72;7379854;19;19915;-71
2023/07/08 05:43:39;;;;;;;;;;;;;;;23.69;42.23;98412.34;7379033;19;19927;-70
2023/07/08 05:46:05;;;;;;;;;;;;;;;23.64;42.78;98430.13;7379299;19;20299;-71
2023/07/08 05:48:38;;;;;;;;;;;;;;;23.81;40.33;98430.19;7366787;19;19919;-71
2023/07/08 05:51:05;;;;;;;;;;;;;;;23.64;43.29;98413.91;7374610;19;20264;-71
2023/07/08 05:53:32;;;;;;;;;;;;;;;23.56;43.50;98405.34;7377632;19;20616;-71
2023/07/08 05:55:58;;;;;;;;;;;;;;;23.59;44.25;98427.31;7373647;19;19923;-71
2023/07/08 05:58:25;;;;;;;;;;;;;;;23.71;43.23;98431.84;7380305;19;19940;-69
2023/07/08 06:00:56;;;;;;;;;;;;;;;23.73;41.97;98435.16;7370614;19;19915;-72
2023/07/08 06:03:24;;;;;;;;;;;;;;;23.75;42.86;98430.31;7379058;19;19914;-71
2023/07/08 06:05:51;;;;;;;;;;;;;;;23.72;42.54;98439.72;7368296;19;19949;-71
2023/07/08 06:08:18;;;;;;;;;;;;;;;23.61;42.74;98435.97;7375282;19;19930;-71
2023/07/08 06:10:44;;;;;;;;;;;;;;;23.66;45.25;98438.78;7370839;19;19938;-71
2023/07/08 06:13:11;;;;;;;;;;;;;;;23.77;42.95;98445.25;7381566;19;19915;-71
2023/07/08 06:15:38;;;;;;;;;;;;;;;24.04;40.89;98433.84;7372441;19;19918;-72
2023/07/08 06:18:05;;;;;;;;;;;;;;;24.25;40.71;98440.47;7373785;19;19927;-71
2023/07/08 06:20:32;;;;;;;;;;;;;;;24.22;40.65;98433.66;7375517;19;19947;-71
2023/07/08 06:22:59;;;;;;;;;;;;;;;24.57;42.27;98438.09;7365688;19;19922;-71
2023/07/08 06:25:25;;;;;;;;;;;;;;;24.85;39.34;98444.50;7376051;19;19929;-71
2023/07/08 06:27:52;;;;;;;;;;;;;;;25.11;40.20;98443.81;7374220;19;20760;-68
2023/07/08 06:30:20;;;;;;;;;;;;;;;25.33;38.62;98430.38;7374217;19;19934;-71
2023/07/08 06:32:47;;;;;;;;;;;;;;;25.24;38.77;98442.69;7374613;19;19951;-71
2023/07/08 06:35:14;;;;;;;;;;;;;;;25.47;37.31;98440.84;7374766;19;19946;-69
2023/07/08 06:37:40;;;;;;;;;;;;;;;25.73;36.34;98434.66;7369679;19;20013;-71
2023/07/08 06:40:07;;;;;;;;;;;;;;;25.74;36.06;98436.28;7368421;19;19918;-71
2023/07/08 06:42:34;;;;;;;;;;;;;;;25.87;37.26;98434.31;7371743;19;19925;-71
2023/07/08 06:45:21;;;;;;;;;;;;;;;25.83;37.03;98442.91;7370361;19;20580;-71
2023/07/08 06:47:48;;;;;;;;;;;;;;;25.90;37.95;98444.63;7369541;19;19923;-71
2023/07/08 06:50:15;;;;;;;;;;;;;;;26.04;37.54;98452.13;7375473;19;19919;-68
2023/07/08 06:52:41;;;;;;;;;;;;;;;26.26;36.56;98449.38;7376073;19;19911;-71
2023/07/08 06:55:09;;;;;;;;;;;;;;;26.52;33.88;98446.13;7374786;19;19923;-71
2023/07/08 06:57:38;;;;;;;;;;;;;;;26.66;36.12;98447.31;7372352;19;19929;-70
2023/07/08 07:00:07;;;;;;;;;;;;;;;26.80;34.41;98451.22;7376877;19;19930;-71
2023/07/08 07:02:36;;;;;;;;;;;;;;;26.83;35.29;98452.59;7376080;19;19979;-70
2023/07/08 07:05:03;;;;;;;;;;;;;;;26.98;35.70;98460.06;7377748;19;19934;-70
2023/07/08 07:07:30;;;;;;;;;;;;;;;26.99;36.02;98470.66;7377266;19;19938;-70
2023/07/08 07:09:57;;;;;;;;;;;;;;;27.22;36.04;98469.47;7369857;19;21639;-70
2023/07/08 07:12:24;;;;;;;;;;;;;;;27.28;36.05;98470.34;7374078;19;20216;-70
2023/07/08 07:14:52;;;;;;;;;;;;;;;27.29;36.94;98474.69;7367763;19;19926;-70
2023/07/08 07:17:20;;;;;;;;;;;;;;;27.40;35.03;98472.84;7376382;19;19929;-70
2023/07/08 07:19:47;;;;;;;;;;;;;;;27.48;35.64;98480.50;7369467;19;20288;-70
2023/07/08 07:22:15;;;;;;;;;;;;;;;27.57;34.76;98484.38;7376929;19;19923;-70
2023/07/08 07:24:41;;;;;;;;;;;;;;;27.57;35.08;98485.19;7370923;19;19914;-71
2023/07/08 07:27:08;;;;;;;;;;;;;;;27.53;35.29;98475.91;7377925;19;20316;-71
2023/07/08 07:29:42;;;;;;;;;;;;;;;27.64;34.51;98474.06;7365781;19;19921;-70
2023/07/08 07:32:09;;;;;;;;;;;;;;;27.75;34.62;98469.50;7369734;19;20814;-70
2023/07/08 07:34:36;;;;;;;;;;;;;;;27.74;33.87;98467.88;7376756;19;19943;-70
2023/07/08 07:37:02;;;;;;;;;;;;;;;27.57;34.78;98468.88;7371858;19;19927;-70
2023/07/08 07:39:29;;;;;;;;;;;;;;;27.49;35.47;98469.38;7357484;19;20680;-70
2023/07/08 07:41:56;;;;;;;;;;;;;;;27.38;35.95;98478.53;7370389;19;19915;-70
2023/07/08 07:44:24;;;;;;;;;;;;;;;27.34;35.68;98480.97;7372962;19;20296;-71
2023/07/08 07:46:52;;;;;;;;;;;;;;;27.56;36.47;98477.28;7365173;19;19925;-71
2023/07/08 07:49:19;;;;;;;;;;;;;;;27.57;35.87;98482.47;7371380;19;20320;-70
2023/07/08 07:51:46;;;;;;;;;;;;;;;27.70;35.96;98481.19;7369385;19;19933;-71
2023/07/08 07:54:12;;;;;;;;;;;;;;;27.76;35.90;98482.03;7377544;19;19921;-71
2023/07/08 07:56:39;;;;;;;;;;;;;;;27.90;35.50;98472.31;7374029;19;19915;-71
2023/07/08 07:59:06;;;;;;;;;;;;;;;28.12;37.24;98484.88;7373233;19;20384;-70
2023/07/08 08:01:32;;;;;;;;;;;;;;;28.25;36.60;98487.09;7370048;19;19919;-71
2023/07/08 08:03:59;;;;;;;;;;;;;;;28.50;35.48;98491.81;7365345;19;20024;-71
2023/07/08 08:06:26;;;;;;;;;;;;;;;28.39;35.75;98493.69;7371042;19;19998;-71
2023/07/08 08:08:53;;;;;;;;;;;;;;;28.69;34.99;98488.56;7369490;19;19929;-70
2023/07/08 08:11:19;;;;;;;;;;;;;;;28.68;35.56;98487.75;7375098;19;19911;-70
2023/07/08 08:13:46;;;;;;;;;;;;;;;28.89;34.60;98494.03;7370980;19;20283;-71
2023/07/08 08:16:14;;;;;;;;;;;;;;;29.01;34.40;98486.38;7374774;19;19915;-70
2023/07/08 08:18:41;;;;;;;;;;;;;;;29.24;33.86;98490.50;7370266;19;19918;-70
2023/07/08 08:21:07;;;;;;;;;;;;;;;29.09;32.38;98482.31;7366637;19;19925;-71
2023/07/08 08:23:34;;;;;;;;;;;;;;;29.46;31.94;98483.91;7373716;19;19945;-70
2023/07/08 08:26:01;;;;;;;;;;;;;;;29.45;31.01;98474.91;7368320;19;19921;-72
2023/07/08 08:28:28;;;;;;;;;;;;;;;29.80;30.99;98478.66;7367432;19;19915;-70
2023/07/08 08:30:54;;;;;;;;;;;;;;;29.90;30.45;98485.97;7367717;19;19918;-70
2023/07/08 08:33:21;;;;;;;;;;;;;;;29.74;29.84;98486.03;7373606;19;19972;-70
2023/07/08 08:35:48;;;;;;;;;;;;;;;30.00;30.09;98487.84;7367067;19;19941;-70
2023/07/08 08:38:14;;;;;;;;;;;;;;;30.12;30.30;98491.88;7367406;19;20184;-70
2023/07/08 08:40:41;;;;;;;;;;;;;;;30.39;28.70;98482.47;7375670;19;20598;-70
2023/07/08 08:43:10;;;;;;;;;;;;;;;30.29;28.50;98482.53;7370422;19;20252;-71
2023/07/08 08:45:39;;;;;;;;;;;;;;;30.46;30.99;98482.16;7373883;19;19922;-70
2023/07/08 08:48:09;;;;;;;;;;;;;;;30.66;28.60;98473.81;7368467;19;19919;-70
2023/07/08 08:50:43;;;;;;;;;;;;;;;30.82;28.37;98471.81;7370479;19;19930;-71
2023/07/08 08:53:13;;;;;;;;;;;;;;;30.51;29.32;98482.13;7369982;19;19953;-70
2023/07/08 08:55:40;;;;;;;;;;;;;;;30.61;30.25;98485.59;7370024;19;19926;-72
2023/07/08 08:58:08;;;;;;;;;;;;;;;30.74;28.79;98489.59;7367183;19;19919;-70
2023/07/08 09:00:41;;;;;;;;;;;;;;;31.34;28.54;98488.56;7370819;19;19914;-71
2023/07/08 09:03:09;;;;;;;;;;;;;;;31.44;29.60;98486.56;7367645;19;20491;-70
2023/07/08 09:05:36;;;;;;;;;;;;;;;31.12;27.59;98486.31;7374226;19;19950;-71
2023/07/08 09:08:20;;;;;;;;;;;;;;;31.08;28.70;98499.75;7367764;19;19927;-70
2023/07/08 09:10:48;;;;;;;;;;;;;;;30.85;30.17;98482.16;7359739;19;19933;-71
2023/07/08 09:13:17;;;;;;;;;;;;;;;30.60;29.40;98488.63;7369439;19;19919;-70
2023/07/08 09:15:43;;;;;;;;;;;;;;;31.33;28.25;98485.00;7371125;19;19936;-70
2023/07/08 09:18:14;;;;;;;;;;;;;;;31.80;27.71;98480.69;7361534;19;19934;-71
2023/07/08 09:20:43;;;;;;;;;;;;;;;31.96;27.63;98475.88;7369642;19;20124;-70
2023/07/08 09:23:21;;;;;;;;;;;;;;;31.45;27.82;98488.19;7368306;19;19922;-71
2023/07/08 09:25:54;;;;;;;;;;;;;;;31.18;33.81;98487.91;7363355;19;20470;-70
2023/07/08 09:28:21;;;;;;;;;;;;;;;31.00;31.77;98490.25;7366165;19;19929;-70
2023/07/08 09:30:48;;;;;;;;;;;;;;;31.14;34.86;98479.44;7367945;19;19919;-70
2023/07/08 09:33:14;;;;;;;;;;;;;;;31.63;31.45;98483.09;7373578;19;19922;-70
2023/07/08 09:35:43;;;;;;;;;;;;;;;32.40;28.61;98484.84;7371701;19;19933;-70
2023/07/08 09:38:13;;;;;;;;;;;;;;;32.72;26.78;98476.72;7364334;19;20391;-69
2023/07/08 09:40:42;;;;;;;;;;;;;;;33.35;26.73;98478.13;7366490;19;19925;-70
2023/07/08 09:43:16;;;;;;;;;;;;;;;33.32;28.31;98473.25;7360851;19;19931;-70
2023/07/08 09:45:44;;;;;;;;;;;;;;;33.44;27.79;98472.72;7364724;19;19948;-70
2023/07/08 09:48:15;;;;;;;;;;;;;;;33.23;27.30;98475.06;7365292;19;19929;-70
2023/07/08 09:50:42;;;;;;;;;;;;;;;33.18;27.49;98472.41;7368457;19;19926;-70
2023/07/08 09:53:13;;;;;;;;;;;;;;;33.02;27.06;98474.63;7368961;19;19926;-70
2023/07/08 09:55:40;;;;;;;;;;;;;;;32.96;26.81;98470.28;7372548;19;19935;-70
2023/07/08 09:58:24;;;;;;;;;;;;;;;32.95;26.83;98479.63;7367796;19;22505;-70
2023/07/08 10:00:55;;;;;;;;;;;;;;;33.04;27.16;98477.03;7356784;19;19924;-70
2023/07/08 10:03:22;;;;;;;;;;;;;;;33.17;26.73;98465.28;7369763;19;19915;-70
2023/07/08 10:05:51;;;;;;;;;;;;;;;32.98;27.36;98468.88;7364067;19;19936;-70
2023/07/08 10:08:18;;;;;;;;;;;;;;;32.30;28.43;98463.91;7374989;19;20600;-69
2023/07/08 10:10:47;;;;;;;;;;;;;;;32.25;28.86;98469.47;7375505;19;20519;-69
2023/07/08 10:13:19;;;;;;;;;;;;;;;32.64;25.99;98465.63;7376342;19;19919;-69
2023/07/08 10:15:51;;;;;;;;;;;;;;;32.55;27.08;98468.22;7376089;19;20296;-70
2023/07/08 10:18:20;;;;;;;;;;;;;;;32.36;28.28;98460.81;7374373;19;19914;-71
2023/07/08 10:21:02;;;;;;;;;;;;;;;32.66;27.59;98466.16;7378264;19;19918;-70
2023/07/08 10:23:29;;;;;;;;;;;;;;;32.54;28.36;98467.41;7377810;19;19926;-69
2023/07/08 10:26:08;;;;;;;;;;;;;;;32.57;27.93;98464.09;7371346;19;19943;-69
2023/07/08 10:28:58;;;;;;;;;;;;;;;32.71;27.03;98464.13;7378124;19;20493;-70
2023/07/08 10:31:31;;;;;;;;;;;;;;;32.80;27.72;98461.50;7374657;19;20277;-70
2023/07/08 10:34:17;;;;;;;;;;;;;;;32.47;27.44;98464.25;7362377;19;20308;-70
2023/07/08 10:36:50;;;;;;;;;;;;;;;32.21;28.64;98471.16;7375853;19;19962;-68
2023/07/08 10:39:36;;;;;;;;;;;;;;;32.25;28.88;98463.97;7375571;19;19926;-69
2023/07/08 10:42:22;;;;;;;;;;;;;;;32.48;27.97;98470.53;7366053;19;19918;-70
2023/07/08 10:44:58;;;;;;;;;;;;;;;32.44;27.76;98463.97;7370249;19;19929;-69
2023/07/08 10:47:44;;;;;;;;;;;;;;;32.20;29.05;98478.53;7374593;19;19927;-69
2023/07/08 10:50:23;;;;;;;;;;;;;;;31.78;30.00;98462.94;7369913;19;21974;-69
2023/07/08 10:52:50;;;;;;;;;;;;;;;31.56;29.20;98461.56;7374737;19;19922;-70
2023/07/08 10:55:19;;;;;;;;;;;;;;;31.71;30.71;98466.03;7372808;19;19914;-70
2023/07/08 10:57:53;;;;;;;;;;;;;;;32.06;29.28;98463.97;7375712;19;19942;-69
2023/07/08 11:00:40;;;;;;;;;;;;;;;32.32;29.14;98461.69;7377616;19;19937;-69
2023/07/08 11:03:25;;;;;;;;;;;;;;;32.61;28.97;98467.03;7370926;19;19919;-69
2023/07/08 11:06:03;;;;;;;;;;;;;;;32.47;28.33;98466.97;7369844;19;19919;-70
2023/07/08 11:08:46;;;;;;;;;;;;;;;32.26;28.94;98469.16;7369714;19;19919;-69
2023/07/08 11:11:16;;;;;;;;;;;;;;;32.06;28.55;98463.97;7367639;19;21019;-69
2023/07/08 11:13:45;;;;;;;;;;;;;;;31.99;28.11;98472.53;7378828;19;20352;-70
2023/07/08 11:16:38;;;;;;;;;;;;;;;31.90;29.41;98460.59;7371741;19;19922;-70
2023/07/08 11:19:19;;;;;;;;;;;;;;;31.73;28.46;98461.09;7365409;19;19918;-69
2023/07/08 11:21:47;;;;;;;;;;;;;;;31.67;28.96;98460.31;7375979;19;19929;-69
2023/07/08 11:24:26;;;;;;;;;;;;;;;31.66;29.25;98457.88;7371555;19;21572;-69
2023/07/08 11:26:57;;;;;;;;;;;;;;;31.49;29.54;98461.91;7379900;19;20257;-69
2023/07/08 11:29:27;;;;;;;;;;;;;;;31.62;28.80;98451.38;7375260;19;19930;-69
2023/07/08 11:31:53;;;;;;;;;;;;;;;31.57;29.52;98454.16;7383572;19;19923;-69
2023/07/08 11:34:21;;;;;;;;;;;;;;;31.47;28.84;98457.84;7383761;19;19918;-69
2023/07/08 11:36:48;;;;;;;;;;;;;;;31.52;28.73;98449.56;7372403;19;19918;-69
2023/07/08 11:39:34;;;;;;;;;;;;;;;31.53;28.66;98447.66;7371099;19;19923;-69
2023/07/08 11:42:05;;;;;;;;;;;;;;;31.66;28.71;98452.41;7370488;19;19922;-69
2023/07/08 11:44:32;;;;;;;;;;;;;;;31.70;27.91;98453.44;7375084;19;19927;-69
2023/07/08 11:47:01;;;;;;;;;;;;;;;31.68;28.75;98452.94;7370379;19;19931;-69
2023/07/08 11:49:28;;;;;;;;;;;;;;;31.67;29.24;98445.84;7374952;19;19994;-69
2023/07/08 11:51:55;;;;;;;;;;;;;;;31.65;28.50;98445.31;7372591;19;19928;-69
2023/07/08 11:54:30;;;;;;;;;;;;;;;31.67;28.02;98448.56;7374791;19;19919;-69
2023/07/08 11:56:57;;;;;;;;;;;;;;;31.37;28.74;98439.63;7374379;19;19923;-71
2023/07/08 11:59:25;;;;;;;;;;;;;;;31.82;28.17;98437.44;7372909;19;20657;-69
2023/07/08 12:01:53;;;;;;;;;;;;;;;31.81;28.85;98430.34;7379050;19;19923;-69
2023/07/08 12:04:24;;;;;;;;;;;;;;;31.59;27.87;98444.56;7375160;19;19922;-73
2023/07/08 12:07:11;;;;;;;;;;;;;;;31.83;27.18;98427.31;7376182;19;20384;-69
2023/07/08 12:09:39;;;;;;;;;;;;;;;31.88;28.00;98428.03;7375160;19;19926;-70
2023/07/08 12:12:06;;;;;;;;;;;;;;;31.74;27.70;98421.69;7370685;19;19926;-73
2023/07/08 12:14:33;;;;;;;;;;;;;;;31.93;27.68;98429.94;7372705;19;19915;-70
2023/07/08 12:16:59;;;;;;;;;;;;;;;32.07;25.83;98416.34;7373627;19;19970;-70
2023/07/08 12:19:28;;;;;;;;;;;;;;;32.08;27.91;98423.44;7370979;19;19925;-70
2023/07/08 12:21:58;;;;;;;;;;;;;;;32.23;27.46;98427.88;7375073;19;19933;-70
2023/07/08 12:24:27;;;;;;;;;;;;;;;32.40;27.38;98424.63;7376869;19;19929;-70
2023/07/08 12:26:53;;;;;;;;;;;;;;;32.33;26.81;98414.03;7374030;19;19926;-70
2023/07/08 12:29:20;;;;;;;;;;;;;;;32.08;28.31;98420.72;7367287;19;20620;-71
2023/07/08 12:31:47;;;;;;;;;;;;;;;32.13;26.46;98420.63;7372833;19;19922;-70
2023/07/08 12:34:14;;;;;;;;;;;;;;;32.00;27.97;98419.44;7367230;19;21116;-70
2023/07/08 12:36:41;;;;;;;;;;;;;;;31.98;26.81;98409.91;7375368;19;19930;-70
2023/07/08 12:39:08;;;;;;;;;;;;;;;32.07;27.18;98408.13;7364069;19;19934;-71
2023/07/08 12:41:35;;;;;;;;;;;;;;;32.04;27.72;98417.72;7368162;19;19939;-70
2023/07/08 12:44:08;;;;;;;;;;;;;;;32.00;27.06;98407.69;7371200;19;19947;-70
2023/07/08 12:46:35;;;;;;;;;;;;;;;32.09;26.41;98414.13;7371263;19;19923;-71
2023/07/08 12:49:02;;;;;;;;;;;;;;;32.11;27.06;98411.91;7368663;19;20564;-71
2023/07/08 12:51:29;;;;;;;;;;;;;;;31.86;28.54;98408.41;7375771;19;19923;-70
2023/07/08 12:53:56;;;;;;;;;;;;;;;31.86;28.38;98411.13;7375425;19;19930;-70
2023/07/08 12:56:23;;;;;;;;;;;;;;;31.84;27.51;98413.34;7377202;19;19930;-72